Provo, UT

10:44 AM MDT on September 02, 2014 (GMT -0600)
Snake Hill Farm | Change Station
CLOSE
Current Station
Personal Weather Station
Location: Orem, UT
Elevation: 4741 ft
Nearby Weather Stations

Elev 4741 ft 40.26 °N, 111.69 °W | Updated 14 seconds ago

Clear
Clear
72.3 °F
Feels Like 77 °F
N
0.0
Wind Variable Wind from WSW
Gusts 0.0 mph

Today
High -- | Low -- °F
--% Chance of Precip.
Yesterday
High -- | Low -- °F
Precip. -- in
6:55 AM 7:56 PM
First Quarter, 53% visible
Pressure 30.09 in
Visibility 15.0 miles
Clouds Clear
Heat Index 77 °F
Dew Point 43 °F
Humidity 35%
Rainfall 0.00 in
Snow Depth Not available.
UV 4 out of 12
Pollen 7.50 out of 12
Air Quality Not available.
Flu Activity Not available.
METAR KPVU 021556Z 00000KT 15SM SKC 18/05 A3009

More Conditions Fewer Conditions

Pressure 30.09 in
Visibility 15.0 miles
Clouds Clear
Heat Index 77 °F
Dew Point 43 °F
Humidity 35%
Rainfall 0.00 in
Snow Depth Not available.
UV 4 out of 12
Pollen 7.50 out of 12
Air Quality Not available.
Flu Activity Not available.
METAR KPVU 021556Z 00000KT 15SM SKC 18/05 A3009

More Conditions Fewer Conditions

10-Day Weather Forecast

Almanac

Astronomy

Sep. 02, 2014 Rise Set
Actual Time 6:55 AM MDT 7:56 PM MDT
Civil Twilight 6:27 AM MDT 8:24 PM MDT
Nautical Twilight 5:54 AM MDT 8:57 PM MDT
Astronomical Twilight 5:19 AM MDT 9:31 PM MDT
Moon 2:43 PM MDT 12:01 AM MDT
Length of Visible Light 13h 56m
Length of Day
13h 01m
Tomorrow will be 2m 33s shorter.
First Quarter, 53% of the Moon is Illuminated
Today
First Quarter
Sep 8
Full
Sep 15
Last Quarter
Sep 24
New
Oct 1
First Quarter

Today's Extremes

State Highs State Lows

Community

WunderPhotos

Upload Photos

1,749,716 photos uploaded!

Nearby

Snow Depth

Station Depth Elevation
Snowbird 0 in 9640 ft
Daniels-Strawberry 0 in 8000 ft
Clear Creek #2 0 in 8300 ft
Clear Creek #1 0 in 9200 ft
Louis Meadow 0 in 6700 ft

Earthquake Activity

City Distance Mag. Time & Date
No recent earthquake activity has been reported nearby.
Minimum magnitude displayed is 2.5.

Coastal Water Temperatures

Place Temperature
No Stations Reporting

Nearby Weather Stations